createdAt,value
2018-07-20T00:00:00.066Z,12.70
2018-07-20T00:01:31.430Z,12.40
2018-07-20T00:03:03.002Z,12.50
2018-07-20T00:04:34.576Z,13.20
2018-07-20T00:06:06.147Z,16.20
2018-07-20T00:07:37.720Z,12.70
2018-07-20T00:09:09.294Z,14.70
2018-07-20T00:10:40.868Z,13.50
2018-07-20T00:12:12.442Z,14.30
2018-07-20T00:13:44.013Z,13.70
2018-07-20T00:15:15.586Z,13.50
2018-07-20T00:16:47.204Z,13.00
2018-07-20T00:18:18.831Z,13.90
2018-07-20T00:19:50.303Z,14.50
2018-07-20T00:21:21.876Z,13.10
2018-07-20T00:22:53.449Z,13.00
2018-07-20T00:24:25.022Z,13.80
2018-07-20T00:25:56.595Z,12.80
2018-07-20T00:27:28.167Z,14.20
2018-07-20T00:28:59.740Z,14.20
2018-07-20T00:30:31.312Z,13.70
2018-07-20T00:32:02.883Z,12.70
2018-07-20T00:33:34.497Z,13.10
2018-07-20T00:35:06.038Z,13.30
2018-07-20T00:36:37.701Z,15.30
2018-07-20T00:38:09.173Z,13.20
2018-07-20T00:39:40.745Z,12.50
2018-07-20T00:41:12.330Z,14.50
2018-07-20T00:42:43.890Z,13.10
2018-07-20T00:44:15.461Z,15.40
2018-07-20T00:45:47.034Z,15.40
2018-07-20T00:47:18.604Z,15.10
2018-07-20T00:48:50.184Z,13.80
2018-07-20T00:50:21.765Z,13.90
2018-07-20T00:51:53.321Z,13.10
2018-07-20T00:53:24.893Z,15.10
2018-07-20T00:54:57.023Z,12.90
2018-07-20T00:56:28.037Z,13.30
2018-07-20T00:57:59.609Z,15.60
2018-07-20T00:59:31.180Z,15.00
2018-07-20T01:01:02.853Z,15.70
2018-07-20T01:02:34.324Z,14.70
2018-07-20T01:04:05.896Z,15.00
2018-07-20T01:05:37.467Z,14.80
2018-07-20T01:07:09.054Z,15.00
2018-07-20T01:08:40.611Z,16.70
2018-07-20T01:10:12.183Z,15.10
2018-07-20T01:11:43.755Z,15.80
2018-07-20T01:13:15.430Z,18.00
2018-07-20T01:14:46.897Z,18.50
2018-07-20T01:16:18.469Z,16.50
2018-07-20T01:17:50.048Z,19.30
2018-07-20T01:19:21.687Z,18.90
2018-07-20T01:20:53.184Z,19.10
2018-07-20T01:22:24.755Z,20.10
2018-07-20T01:23:56.327Z,20.50
2018-07-20T01:25:27.899Z,19.70
2018-07-20T01:26:59.470Z,20.10
2018-07-20T01:28:31.062Z,19.00
2018-07-20T01:30:02.614Z,18.30
2018-07-20T01:31:34.385Z,21.90
2018-07-20T01:33:05.757Z,18.70
2018-07-20T01:34:37.328Z,15.80
2018-07-20T01:36:08.900Z,16.50
2018-07-20T01:37:40.472Z,16.90
2018-07-20T01:39:12.044Z,19.10
2018-07-20T01:40:43.633Z,15.80
2018-07-20T01:42:15.189Z,16.10
2018-07-20T01:43:46.763Z,16.30
2018-07-20T01:45:18.331Z,16.00
2018-07-20T01:46:49.903Z,18.80
2018-07-20T01:48:21.483Z,16.20
2018-07-20T01:49:53.197Z,16.40
2018-07-20T01:51:24.620Z,16.90
2018-07-20T01:52:56.191Z,17.40
2018-07-20T01:55:59.337Z,17.90
2018-07-20T01:57:30.907Z,18.30
2018-07-20T01:59:02.479Z,15.70
2018-07-20T02:00:34.055Z,15.70
2018-07-20T02:02:05.724Z,16.40
2018-07-20T02:03:37.202Z,15.60
2018-07-20T02:05:08.768Z,16.70
2018-07-20T02:06:40.345Z,15.70
2018-07-20T02:08:12.011Z,15.40
2018-07-20T02:09:43.507Z,16.30
2018-07-20T02:11:15.054Z,15.50
2018-07-20T02:12:46.628Z,15.20
2018-07-20T02:14:18.198Z,20.10
2018-07-20T02:15:49.770Z,16.00
2018-07-20T02:17:21.342Z,18.00
2018-07-20T02:18:52.914Z,16.20
2018-07-20T02:20:24.486Z,16.50
2018-07-20T02:21:56.063Z,16.80
2018-07-20T02:23:27.633Z,16.70
2018-07-20T02:24:59.552Z,16.80
2018-07-20T02:26:30.874Z,16.60
2018-07-20T02:28:02.346Z,17.60
2018-07-20T02:29:34.092Z,19.20
2018-07-20T02:31:05.491Z,17.20
2018-07-20T02:32:37.162Z,16.90
2018-07-20T02:34:08.687Z,16.20
2018-07-20T02:35:40.205Z,17.40
2018-07-20T02:37:11.779Z,15.80
2018-07-20T02:38:43.367Z,16.00
2018-07-20T02:40:14.923Z,19.60
2018-07-20T02:41:46.494Z,18.50
2018-07-20T02:43:18.066Z,16.00
2018-07-20T02:44:49.987Z,18.90
2018-07-20T02:46:21.211Z,17.10
2018-07-20T02:47:52.781Z,16.30
2018-07-20T02:49:24.352Z,15.90
2018-07-20T02:50:55.924Z,17.10
2018-07-20T02:52:27.496Z,16.50
2018-07-20T02:53:59.067Z,17.00
2018-07-20T02:55:30.643Z,19.40
2018-07-20T02:57:02.211Z,17.00
2018-07-20T02:58:34.973Z,16.60
2018-07-20T03:00:05.407Z,16.50
2018-07-20T03:01:37.043Z,17.40
2018-07-20T03:03:08.749Z,18.60
2018-07-20T03:04:40.214Z,16.80
2018-07-20T03:06:11.642Z,16.20
2018-07-20T03:07:43.226Z,16.00
2018-07-20T03:09:14.794Z,16.30
2018-07-20T03:10:46.395Z,16.20
2018-07-20T03:12:17.931Z,16.40
2018-07-20T03:13:49.502Z,16.00
2018-07-20T03:15:21.324Z,16.90
2018-07-20T03:16:52.648Z,16.30
2018-07-20T03:18:24.217Z,16.90
2018-07-20T03:19:55.788Z,18.40
2018-07-20T03:21:27.461Z,15.90
2018-07-20T03:22:58.930Z,16.20
2018-07-20T03:24:30.501Z,17.10
2018-07-20T03:26:02.076Z,18.40
2018-07-20T03:27:33.644Z,16.60
2018-07-20T03:29:05.215Z,15.60
2018-07-20T03:30:36.787Z,16.30
2018-07-20T03:32:08.360Z,17.80
2018-07-20T03:33:40.030Z,19.30
2018-07-20T03:35:11.500Z,18.00
2018-07-20T03:36:43.071Z,18.50
2018-07-20T03:38:14.642Z,19.30
2018-07-20T03:39:46.363Z,18.50
2018-07-20T03:41:17.783Z,18.20
2018-07-20T03:42:49.354Z,19.10
2018-07-20T03:44:20.935Z,20.50
2018-07-20T03:45:52.746Z,22.80
2018-07-20T03:47:24.067Z,19.30
2018-07-20T03:48:55.694Z,19.90
2018-07-20T03:50:27.209Z,21.60
2018-07-20T03:51:58.779Z,20.00
2018-07-20T03:53:30.352Z,19.70
2018-07-20T03:55:01.920Z,18.30
2018-07-20T03:58:05.161Z,20.40
2018-07-20T03:59:36.631Z,18.90
2018-07-20T04:01:08.205Z,20.70
2018-07-20T04:02:39.772Z,20.40
2018-07-20T04:04:11.445Z,22.80
2018-07-20T04:05:42.914Z,20.90
2018-07-20T04:07:14.484Z,22.70
2018-07-20T04:08:46.055Z,23.00
2018-07-20T04:10:17.667Z,23.40
2018-07-20T04:11:49.196Z,22.90
2018-07-20T04:13:20.765Z,20.50
2018-07-20T04:14:52.336Z,22.40
2018-07-20T04:16:24.007Z,21.60
2018-07-20T04:17:55.477Z,23.40
2018-07-20T04:19:27.075Z,23.10
2018-07-20T04:20:58.617Z,20.90
2018-07-20T04:22:30.188Z,22.70
2018-07-20T04:24:01.758Z,22.80
2018-07-20T04:25:33.328Z,21.80
2018-07-20T04:27:04.899Z,22.10
2018-07-20T04:28:36.468Z,24.30
2018-07-20T04:30:08.039Z,22.30
2018-07-20T04:31:39.618Z,23.80
2018-07-20T04:33:11.179Z,21.60
2018-07-20T04:34:42.851Z,21.80
2018-07-20T04:36:14.321Z,23.50
2018-07-20T04:37:45.890Z,23.80
2018-07-20T04:39:17.467Z,20.60
2018-07-20T04:40:49.031Z,24.60
2018-07-20T04:42:20.601Z,24.60
2018-07-20T04:43:52.190Z,30.90
2018-07-20T04:46:55.313Z,26.60
2018-07-20T04:48:26.883Z,23.50
2018-07-20T04:49:58.483Z,27.80
2018-07-20T04:51:30.023Z,30.60
2018-07-20T04:53:01.693Z,27.20
2018-07-20T04:54:33.163Z,27.20
2018-07-20T04:56:04.733Z,28.50
2018-07-20T04:57:36.303Z,33.20
2018-07-20T04:59:07.873Z,32.20
2018-07-20T05:00:39.443Z,29.10
2018-07-20T05:02:11.013Z,27.50
2018-07-20T05:03:42.651Z,32.80
2018-07-20T05:05:14.257Z,34.50
2018-07-20T05:06:45.726Z,27.20
2018-07-20T05:08:17.294Z,29.50
2018-07-20T05:09:48.864Z,27.50
2018-07-20T05:11:20.555Z,28.60
2018-07-20T05:12:52.004Z,27.10
2018-07-20T05:14:23.574Z,32.40
2018-07-20T05:15:55.144Z,34.10
2018-07-20T05:17:26.714Z,31.30
2018-07-20T05:18:58.285Z,32.60
2018-07-20T05:20:29.855Z,31.10
2018-07-20T05:22:01.424Z,31.30
2018-07-20T05:23:32.995Z,30.20
2018-07-20T05:25:04.566Z,29.70
2018-07-20T05:26:36.134Z,29.30
2018-07-20T05:28:07.707Z,31.90
2018-07-20T05:29:39.380Z,31.60
2018-07-20T05:31:10.852Z,29.60
2018-07-20T05:32:42.559Z,29.90
2018-07-20T05:34:13.986Z,29.90
2018-07-20T05:35:45.655Z,30.40
2018-07-20T05:37:17.124Z,30.10
2018-07-20T05:38:48.696Z,35.60
2018-07-20T05:40:20.265Z,28.80
2018-07-20T05:41:51.836Z,32.80
2018-07-20T05:43:23.406Z,30.40
2018-07-20T05:44:54.976Z,27.70
2018-07-20T05:46:26.547Z,32.80
2018-07-20T05:47:58.217Z,32.80
2018-07-20T05:49:29.690Z,31.70
2018-07-20T05:51:01.262Z,34.60
2018-07-20T05:52:32.828Z,29.40
2018-07-20T05:54:04.399Z,33.20
2018-07-20T05:55:35.969Z,32.90
2018-07-20T05:57:07.539Z,30.00
2018-07-20T05:58:39.109Z,33.90
2018-07-20T06:00:10.681Z,29.20
2018-07-20T06:01:42.251Z,29.20
2018-07-20T06:03:13.821Z,31.50
2018-07-20T06:04:45.391Z,33.30
2018-07-20T06:06:17.062Z,29.70
2018-07-20T06:07:48.532Z,29.20
2018-07-20T06:09:20.104Z,33.30
2018-07-20T06:10:51.674Z,32.70
2018-07-20T06:12:23.244Z,31.80
2018-07-20T06:13:54.814Z,32.80
2018-07-20T06:15:26.384Z,32.60
2018-07-20T06:16:57.954Z,35.40
2018-07-20T06:18:29.775Z,31.70
2018-07-20T06:20:01.095Z,31.50
2018-07-20T06:21:32.668Z,33.30
2018-07-20T06:23:04.237Z,35.90
2018-07-20T06:24:35.911Z,38.60
2018-07-20T06:26:07.375Z,38.40
2018-07-20T06:27:38.945Z,39.10
2018-07-20T06:29:10.516Z,38.90
2018-07-20T06:30:42.085Z,34.50
2018-07-20T06:32:13.654Z,40.00
2018-07-20T06:33:45.225Z,37.20
2018-07-20T06:35:16.796Z,35.20
2018-07-20T06:36:48.469Z,38.40
2018-07-20T06:38:19.934Z,36.90
2018-07-20T06:39:51.504Z,35.30
2018-07-20T06:41:23.074Z,33.40
2018-07-20T06:42:54.744Z,34.50
2018-07-20T06:44:26.216Z,35.70
2018-07-20T06:45:57.783Z,31.60
2018-07-20T06:47:29.357Z,38.30
2018-07-20T06:49:01.175Z,32.30
2018-07-20T06:50:32.497Z,37.20
2018-07-20T06:52:04.065Z,36.80
2018-07-20T06:53:35.636Z,31.10
2018-07-20T06:55:07.208Z,38.90
2018-07-20T06:56:38.775Z,34.70
2018-07-20T06:58:10.345Z,36.30
2018-07-20T06:59:41.915Z,33.50
2018-07-20T07:01:13.586Z,35.60
2018-07-20T07:02:45.055Z,31.40
2018-07-20T07:04:16.627Z,30.70
2018-07-20T07:05:48.198Z,30.90
2018-07-20T07:07:19.766Z,32.30
2018-07-20T07:08:51.337Z,33.20
2018-07-20T07:10:22.907Z,33.50
2018-07-20T07:11:54.512Z,33.10
2018-07-20T07:13:26.047Z,33.30
2018-07-20T07:14:57.688Z,31.10
2018-07-20T07:16:29.188Z,29.70
2018-07-20T07:18:00.759Z,36.30
2018-07-20T07:19:32.429Z,36.50
2018-07-20T07:21:03.899Z,43.80
2018-07-20T07:22:35.470Z,47.30
2018-07-20T07:24:07.040Z,52.10
2018-07-20T07:25:38.610Z,48.00
2018-07-20T07:27:10.180Z,51.20
2018-07-20T07:28:41.752Z,45.80
2018-07-20T07:30:13.321Z,38.40
2018-07-20T07:31:44.892Z,41.60
2018-07-20T07:33:16.462Z,38.50
2018-07-20T07:34:48.035Z,35.00
2018-07-20T07:36:19.603Z,37.80
2018-07-20T07:37:51.374Z,34.50
2018-07-20T07:39:22.744Z,33.80
2018-07-20T07:40:54.314Z,33.20
2018-07-20T07:42:25.886Z,32.50
2018-07-20T07:43:57.556Z,32.60
2018-07-20T07:45:29.026Z,31.40
2018-07-20T07:47:00.596Z,30.60
2018-07-20T07:48:32.169Z,31.20
2018-07-20T07:50:03.738Z,32.70
2018-07-20T07:51:35.307Z,29.50
2018-07-20T07:53:06.880Z,29.10
2018-07-20T07:54:38.449Z,28.20
2018-07-20T07:56:10.120Z,29.10
2018-07-20T07:57:41.590Z,29.00
2018-07-20T07:59:13.160Z,31.00
2018-07-20T08:00:44.730Z,28.80
2018-07-20T08:02:16.301Z,27.80
2018-07-20T08:03:47.872Z,30.00
2018-07-20T08:05:19.443Z,27.10
2018-07-20T08:06:51.040Z,28.00
2018-07-20T08:08:22.683Z,27.50
2018-07-20T08:09:54.190Z,26.20
2018-07-20T08:11:25.725Z,25.20
2018-07-20T08:12:57.297Z,26.10
2018-07-20T08:14:28.964Z,25.30
2018-07-20T08:16:00.449Z,24.90
2018-07-20T08:17:32.006Z,27.20
2018-07-20T08:19:03.618Z,26.90
2018-07-20T08:20:35.411Z,26.50
2018-07-20T08:22:06.721Z,25.70
2018-07-20T08:23:38.286Z,25.20
2018-07-20T08:25:09.856Z,26.60
2018-07-20T08:26:41.456Z,23.40
2018-07-20T08:28:12.998Z,24.20
2018-07-20T08:29:44.572Z,28.30
2018-07-20T08:31:16.139Z,26.70
2018-07-20T08:32:47.863Z,23.20
2018-07-20T08:34:19.279Z,24.50
2018-07-20T08:35:50.851Z,25.80
2018-07-20T08:37:22.420Z,24.20
2018-07-20T08:38:54.091Z,25.40
2018-07-20T08:40:25.579Z,29.20
2018-07-20T08:41:57.136Z,26.70
2018-07-20T08:43:28.702Z,30.10
2018-07-20T08:45:00.275Z,27.10
2018-07-20T08:46:31.890Z,27.20
2018-07-20T08:48:03.414Z,28.50
2018-07-20T08:49:34.983Z,28.00
2018-07-20T08:51:06.905Z,32.60
2018-07-20T08:52:38.124Z,32.90
2018-07-20T08:54:09.722Z,29.70
2018-07-20T08:55:41.265Z,29.80
2018-07-20T08:57:12.836Z,30.10
2018-07-20T08:58:44.406Z,33.80
2018-07-20T09:00:15.978Z,36.60
2018-07-20T09:01:47.548Z,36.60
2018-07-20T09:03:19.118Z,34.00
2018-07-20T09:04:50.688Z,34.30
2018-07-20T09:06:22.258Z,33.90
2018-07-20T09:07:53.828Z,32.60
2018-07-20T09:09:25.649Z,32.90
2018-07-20T09:10:56.972Z,35.30
2018-07-20T09:12:28.540Z,39.60
2018-07-20T09:14:00.111Z,36.90
2018-07-20T09:15:31.680Z,39.20
2018-07-20T09:17:03.250Z,33.80
2018-07-20T09:18:34.821Z,36.20
2018-07-20T09:20:06.390Z,36.90
2018-07-20T09:21:38.212Z,36.60
2018-07-20T09:23:09.532Z,32.60
2018-07-20T09:24:41.101Z,28.00
2018-07-20T09:26:12.673Z,26.10
2018-07-20T09:27:44.342Z,23.90
2018-07-20T09:29:15.813Z,26.90
2018-07-20T09:30:47.383Z,26.90
2018-07-20T09:32:18.953Z,27.70
2018-07-20T09:33:50.524Z,24.20
2018-07-20T09:35:22.122Z,26.70
2018-07-20T09:36:53.665Z,22.60
2018-07-20T09:38:25.234Z,23.30
2018-07-20T09:39:56.904Z,26.40
2018-07-20T09:41:28.374Z,26.60
2018-07-20T09:42:59.948Z,25.80
2018-07-20T09:44:31.587Z,23.90
2018-07-20T09:46:03.191Z,24.00
2018-07-20T09:47:34.655Z,24.80
2018-07-20T09:49:06.277Z,24.80
2018-07-20T09:50:37.796Z,26.90
2018-07-20T09:52:09.616Z,23.80
2018-07-20T09:53:40.936Z,26.30
2018-07-20T09:55:12.507Z,22.90
2018-07-20T09:56:44.077Z,26.80
2018-07-20T09:59:47.243Z,23.40
2018-07-20T10:01:18.787Z,23.90
2018-07-20T10:02:50.357Z,25.10
2018-07-20T10:04:21.931Z,25.00
2018-07-20T10:05:53.599Z,23.90
2018-07-20T10:07:25.069Z,28.90
2018-07-20T10:08:56.670Z,24.60
2018-07-20T10:10:28.238Z,30.30
2018-07-20T10:11:59.935Z,26.90
2018-07-20T10:13:31.353Z,26.30
2018-07-20T10:15:03.464Z,27.70
2018-07-20T10:16:34.496Z,26.40
2018-07-20T10:19:38.050Z,25.40
2018-07-20T10:21:09.215Z,28.00
2018-07-20T10:22:40.785Z,31.30
2018-07-20T10:24:12.358Z,24.50
2018-07-20T10:25:44.076Z,28.00
2018-07-20T10:27:16.042Z,28.00
2018-07-20T10:28:47.380Z,22.50
2018-07-20T10:30:18.649Z,23.00
2018-07-20T10:31:50.223Z,26.90
2018-07-20T10:34:53.370Z,25.20
2018-07-20T10:36:24.944Z,28.80
2018-07-20T10:37:56.519Z,27.90
2018-07-20T10:39:28.295Z,26.90
2018-07-20T10:42:31.242Z,28.50
2018-07-20T10:44:02.916Z,29.20
2018-07-20T10:45:34.393Z,25.70
2018-07-20T10:47:05.966Z,26.30
2018-07-20T10:48:37.541Z,28.60
2018-07-20T10:50:09.117Z,26.10
2018-07-20T10:51:40.894Z,25.60
2018-07-20T10:53:12.571Z,26.80
2018-07-20T10:56:15.420Z,24.30
2018-07-20T10:57:47.199Z,29.50
2018-07-20T10:59:18.578Z,23.60
2018-07-20T11:00:50.149Z,25.50
2018-07-20T11:02:22.366Z,25.90
2018-07-20T11:03:53.303Z,24.60
2018-07-20T11:05:24.880Z,25.30
2018-07-20T11:06:56.457Z,26.30
2018-07-20T11:08:28.036Z,26.60
2018-07-20T11:09:59.615Z,27.40
2018-07-20T11:11:31.192Z,25.80
2018-07-20T11:13:02.768Z,27.70
2018-07-20T11:14:34.446Z,30.30
2018-07-20T11:16:05.924Z,29.30
2018-07-20T11:17:37.805Z,26.60
2018-07-20T11:19:09.081Z,27.90
2018-07-20T11:22:12.640Z,25.70
2018-07-20T11:23:43.814Z,27.50
2018-07-20T11:25:15.400Z,25.60
2018-07-20T11:26:46.970Z,24.80
2018-07-20T11:29:50.126Z,25.10
2018-07-20T11:32:53.282Z,27.20
2018-07-20T11:34:25.064Z,25.20
2018-07-20T11:37:28.319Z,23.50
2018-07-20T11:38:59.799Z,24.10
2018-07-20T11:40:31.725Z,26.30
2018-07-20T11:43:34.639Z,20.60
2018-07-20T11:45:05.911Z,20.20
2018-07-20T11:46:38.029Z,17.40
2018-07-20T11:48:09.070Z,24.70
2018-07-20T11:49:40.648Z,19.90
2018-07-20T11:51:12.228Z,18.40
2018-07-20T11:54:15.382Z,20.70
2018-07-20T11:55:47.146Z,24.00
2018-07-20T11:57:18.542Z,22.00
2018-07-20T12:00:23.289Z,18.80
2018-07-20T12:01:53.303Z,24.50
2018-07-20T12:03:26.997Z,22.30
2018-07-20T12:04:57.354Z,22.80
2018-07-20T12:06:28.059Z,20.10
2018-07-20T12:07:59.629Z,19.60
2018-07-20T12:09:31.251Z,21.00
2018-07-20T12:11:02.867Z,19.00
2018-07-20T12:12:34.543Z,21.90
2018-07-20T12:14:06.075Z,21.20
2018-07-20T12:15:37.496Z,16.80
2018-07-20T12:17:09.606Z,19.70
2018-07-20T12:18:40.866Z,18.80
2018-07-20T12:20:12.239Z,17.70
2018-07-20T12:23:15.399Z,18.80
2018-07-20T12:24:47.486Z,18.70
2018-07-20T12:26:18.865Z,18.50
2018-07-20T12:27:50.345Z,17.80
2018-07-20T12:29:21.722Z,17.00
2018-07-20T12:30:53.332Z,15.40
2018-07-20T12:35:28.148Z,16.10
2018-07-20T12:36:59.633Z,19.20
2018-07-20T12:38:31.234Z,15.70
2018-07-20T12:44:37.763Z,15.20
2018-07-20T12:46:09.953Z,16.10
2018-07-20T12:49:12.809Z,17.70
2018-07-20T12:50:44.264Z,18.00
2018-07-20T12:52:15.444Z,16.40
2018-07-20T12:53:47.128Z,15.90
2018-07-20T12:55:18.605Z,14.20
2018-07-20T12:56:50.222Z,15.10
2018-07-20T12:58:22.131Z,14.20
2018-07-20T12:59:53.349Z,14.90
2018-07-20T13:02:56.515Z,12.80
2018-07-20T13:04:28.674Z,13.60
2018-07-20T13:05:59.678Z,11.50
2018-07-20T13:07:31.391Z,12.40
2018-07-20T13:09:04.105Z,9.70
2018-07-20T13:12:06.089Z,11.00
2018-07-20T13:15:09.472Z,9.30
2018-07-20T13:16:40.750Z,10.90
2018-07-20T13:18:12.435Z,8.80
2018-07-20T13:19:44.227Z,8.80
2018-07-20T13:21:15.980Z,7.60
2018-07-20T13:22:47.607Z,7.50
2018-07-20T13:24:19.212Z,6.40
2018-07-20T13:25:50.501Z,9.30
2018-07-20T13:27:22.127Z,5.80
2018-07-20T13:30:25.594Z,4.90
2018-07-20T13:31:56.572Z,6.00
2018-07-20T13:33:28.357Z,5.40
2018-07-20T13:34:59.761Z,5.70
2018-07-20T13:39:35.423Z,7.10
2018-07-20T13:41:06.069Z,6.00
2018-07-20T13:45:41.119Z,6.10
2018-07-20T13:47:13.132Z,6.00
2018-07-20T13:48:44.286Z,5.80
2018-07-20T13:50:15.567Z,8.50
2018-07-20T13:51:47.469Z,6.90
2018-07-20T13:53:18.731Z,6.00
2018-07-20T13:54:50.314Z,7.80
2018-07-20T13:56:22.425Z,6.30
2018-07-20T13:57:55.430Z,5.40
2018-07-20T14:00:56.651Z,5.20
2018-07-20T14:04:00.135Z,6.40
2018-07-20T14:05:31.927Z,5.50
2018-07-20T14:11:37.905Z,4.10
2018-07-20T14:14:40.941Z,5.80
2018-07-20T14:16:12.682Z,3.80
2018-07-20T14:19:15.745Z,4.30
2018-07-20T14:20:47.228Z,4.40
2018-07-20T14:23:50.394Z,4.80
2018-07-20T14:25:21.976Z,4.90
2018-07-20T14:26:53.610Z,6.60
2018-07-20T14:28:26.477Z,6.90
2018-07-20T14:29:56.728Z,5.40
2018-07-20T14:31:28.591Z,4.20
2018-07-20T14:33:00.200Z,5.00
2018-07-20T14:34:31.479Z,5.10
2018-07-20T14:36:03.066Z,5.90
2018-07-20T14:40:38.220Z,5.50
2018-07-20T14:42:09.399Z,6.10
2018-07-20T14:43:40.980Z,6.90
2018-07-20T14:45:12.766Z,9.10
2018-07-20T14:48:15.733Z,8.80
2018-07-20T14:49:48.024Z,8.80
2018-07-20T14:51:18.912Z,7.50
2018-07-20T14:52:50.787Z,8.30
2018-07-20T14:54:22.230Z,9.20
2018-07-20T14:55:53.845Z,10.70
2018-07-20T14:58:57.055Z,8.90
2018-07-20T15:00:28.503Z,8.00
2018-07-20T15:02:00.061Z,9.20
2018-07-20T15:03:31.641Z,10.20
2018-07-20T15:05:03.227Z,8.70
2018-07-20T15:06:34.810Z,8.60
2018-07-20T15:08:06.393Z,10.70
2018-07-20T15:09:38.180Z,11.60
2018-07-20T15:11:10.138Z,11.10
2018-07-20T15:12:41.450Z,10.70
2018-07-20T15:14:12.660Z,11.10
2018-07-20T15:15:44.450Z,12.30
2018-07-20T15:17:15.830Z,12.10
2018-07-20T15:24:54.904Z,12.10
2018-07-20T15:26:25.658Z,12.50
2018-07-20T15:27:57.223Z,11.60
2018-07-20T15:29:29.465Z,11.40
2018-07-20T15:31:00.291Z,12.40
2018-07-20T15:34:03.462Z,13.80
2018-07-20T15:35:34.841Z,16.10
2018-07-20T15:37:06.628Z,17.90
2018-07-20T15:38:38.214Z,15.30
2018-07-20T15:40:09.842Z,14.10
2018-07-20T15:41:41.179Z,13.70
2018-07-20T15:43:12.865Z,12.80
2018-07-20T15:44:44.349Z,12.60
2018-07-20T15:46:16.097Z,10.10
2018-07-20T15:47:47.518Z,10.10
2018-07-20T15:49:20.037Z,9.30
2018-07-20T15:50:50.692Z,8.80
2018-07-20T15:55:25.464Z,8.30
2018-07-20T15:56:57.559Z,8.30
2018-07-20T16:00:00.518Z,7.20
2018-07-20T16:01:31.880Z,7.70
2018-07-20T16:04:36.085Z,7.80
2018-07-20T16:07:38.197Z,9.00
2018-07-20T16:09:09.791Z,9.90
2018-07-20T16:10:41.287Z,9.60
2018-07-20T16:12:13.178Z,9.20
2018-07-20T16:13:44.558Z,10.10
2018-07-20T16:15:16.537Z,9.20
2018-07-20T16:18:20.122Z,9.10
2018-07-20T16:19:50.989Z,13.60
2018-07-20T16:22:54.272Z,10.10
2018-07-20T16:24:25.608Z,9.70
2018-07-20T16:25:57.332Z,9.50
2018-07-20T16:27:28.753Z,9.20
2018-07-20T16:29:00.346Z,11.80
2018-07-20T16:30:32.137Z,10.80
2018-07-20T16:32:03.539Z,9.90
2018-07-20T16:33:35.384Z,9.80
2018-07-20T16:35:06.678Z,11.30
2018-07-20T16:36:38.266Z,10.70
2018-07-20T16:38:10.059Z,11.00
2018-07-20T16:39:41.732Z,10.40
2018-07-20T16:41:13.540Z,11.10
2018-07-20T16:42:44.966Z,9.70
2018-07-20T16:44:16.190Z,10.10
2018-07-20T16:45:47.780Z,9.80
2018-07-20T16:48:50.912Z,9.30
2018-07-20T16:50:22.499Z,9.40
2018-07-20T16:51:54.086Z,10.00
2018-07-20T16:54:57.265Z,10.30
2018-07-20T16:56:29.593Z,9.80
2018-07-20T17:01:03.591Z,9.20
2018-07-20T17:02:35.176Z,10.00
2018-07-20T17:05:44.621Z,7.10
2018-07-20T17:07:10.237Z,8.00
2018-07-20T17:08:41.830Z,7.40
2018-07-20T17:10:13.607Z,8.60
2018-07-20T17:11:45.220Z,8.30
2018-07-20T17:13:16.275Z,7.80
2018-07-20T17:14:48.160Z,8.00
2018-07-20T17:16:19.442Z,8.10
2018-07-20T17:17:51.555Z,8.80
2018-07-20T17:19:22.688Z,8.50
2018-07-20T17:20:54.196Z,8.30
2018-07-20T17:22:25.983Z,8.20
2018-07-20T17:23:57.369Z,8.70
2018-07-20T17:25:29.153Z,7.80
2018-07-20T17:27:00.535Z,8.50
2018-07-20T17:28:32.120Z,7.70
2018-07-20T17:30:03.705Z,8.00
2018-07-20T17:31:35.289Z,7.50
2018-07-20T17:33:07.176Z,8.00
2018-07-20T17:34:38.458Z,7.60
2018-07-20T17:39:13.211Z,7.30
2018-07-20T17:40:46.213Z,7.60
2018-07-20T17:42:16.380Z,7.80
2018-07-20T17:43:48.110Z,7.50
2018-07-20T17:45:20.080Z,7.20
2018-07-20T17:46:51.436Z,7.10
2018-07-20T17:48:22.787Z,7.00
2018-07-20T17:49:54.301Z,8.00
2018-07-20T17:52:57.646Z,7.60
2018-07-20T17:54:29.662Z,8.40
2018-07-20T17:56:00.691Z,8.40
2018-07-20T17:57:32.224Z,8.40
2018-07-20T17:59:03.966Z,7.90
2018-07-20T18:02:06.977Z,8.40
2018-07-20T18:03:38.574Z,7.60
2018-07-20T18:05:10.166Z,12.10
2018-07-20T18:06:41.736Z,9.60
2018-07-20T18:08:13.314Z,8.60
2018-07-20T18:09:45.202Z,9.80
2018-07-20T18:11:16.584Z,8.40
2018-07-20T18:12:48.066Z,8.60
2018-07-20T18:14:20.786Z,8.00
2018-07-20T18:15:51.337Z,8.70
2018-07-20T18:17:22.834Z,7.60
2018-07-20T18:18:54.401Z,7.60
2018-07-20T18:21:57.568Z,8.10
2018-07-20T18:23:29.153Z,8.60
2018-07-20T18:25:00.754Z,8.70
2018-07-20T18:26:32.319Z,10.30
2018-07-20T18:29:36.116Z,10.00
2018-07-20T18:31:07.074Z,11.10
2018-07-20T18:34:10.310Z,9.00
2018-07-20T18:35:41.821Z,10.00
2018-07-20T18:37:13.424Z,8.20
2018-07-20T18:38:44.987Z,7.80
2018-07-20T18:41:48.154Z,8.90
2018-07-20T18:43:19.740Z,8.60
2018-07-20T18:44:52.234Z,10.00
2018-07-20T18:46:22.904Z,7.10
2018-07-20T18:47:54.589Z,7.60
2018-07-20T18:49:27.106Z,8.00
2018-07-20T18:50:57.654Z,8.50
2018-07-20T18:52:29.673Z,8.80
2018-07-20T18:54:01.026Z,9.00
2018-07-20T18:55:32.428Z,9.30
2018-07-20T18:57:03.986Z,11.50
2018-07-20T18:58:35.569Z,8.80
2018-07-20T19:00:07.157Z,8.80
2018-07-20T19:01:38.752Z,11.60
2018-07-20T19:03:10.620Z,12.10
2018-07-20T19:04:41.900Z,9.70
2018-07-20T19:06:13.584Z,9.80
2018-07-20T19:07:45.131Z,10.70
2018-07-20T19:09:16.683Z,10.60
2018-07-20T19:10:48.248Z,11.10
2018-07-20T19:12:20.016Z,11.10
2018-07-20T19:13:51.395Z,11.10
2018-07-20T19:15:22.976Z,12.40
2018-07-20T19:16:54.562Z,9.90
2018-07-20T19:18:26.141Z,10.40
2018-07-20T19:19:57.723Z,10.30
2018-07-20T19:21:29.304Z,9.60
2018-07-20T19:23:00.888Z,9.80
2018-07-20T19:24:32.568Z,10.00
2018-07-20T19:26:04.050Z,9.00
2018-07-20T19:27:35.635Z,10.90
2018-07-20T19:29:07.214Z,8.60
2018-07-20T19:30:38.797Z,11.50
2018-07-20T19:32:10.377Z,10.60
2018-07-20T19:33:41.984Z,10.10
2018-07-20T19:35:13.540Z,10.90
2018-07-20T19:36:45.122Z,11.20
2018-07-20T19:38:16.705Z,14.20
2018-07-20T19:39:48.304Z,10.80
2018-07-20T19:41:19.868Z,10.90
2018-07-20T19:42:51.549Z,9.00
2018-07-20T19:44:23.029Z,8.20
2018-07-20T19:45:54.645Z,11.80
2018-07-20T19:47:26.190Z,10.90
2018-07-20T19:48:57.836Z,11.10
2018-07-20T19:50:29.355Z,11.60
2018-07-20T19:52:00.935Z,9.00
2018-07-20T19:53:32.522Z,9.70
2018-07-20T19:55:04.095Z,9.50
2018-07-20T19:58:07.258Z,11.40
2018-07-20T19:59:38.838Z,12.90
2018-07-20T20:01:10.872Z,11.50
2018-07-20T20:02:41.999Z,10.90
2018-07-20T20:04:13.610Z,11.80
2018-07-20T20:05:45.162Z,11.20
2018-07-20T20:07:16.987Z,10.30
2018-07-20T20:08:48.322Z,12.60
2018-07-20T20:10:19.901Z,10.80
2018-07-20T20:11:51.481Z,10.90
2018-07-20T20:13:23.061Z,9.80
2018-07-20T20:14:54.641Z,12.20
2018-07-20T20:16:26.222Z,11.10
2018-07-20T20:17:57.802Z,10.60
2018-07-20T20:19:30.012Z,9.70
2018-07-20T20:21:00.960Z,9.90
2018-07-20T20:22:32.540Z,10.10
2018-07-20T20:24:04.119Z,9.70
2018-07-20T20:25:35.698Z,10.50
2018-07-20T20:27:07.277Z,11.10
2018-07-20T20:28:38.856Z,11.70
2018-07-20T20:30:10.436Z,12.00
2018-07-20T20:31:42.014Z,12.60
2018-07-20T20:33:13.795Z,12.50
2018-07-20T20:34:45.171Z,10.90
2018-07-20T20:36:16.749Z,13.30
2018-07-20T20:37:48.734Z,14.30
2018-07-20T20:40:51.484Z,15.10
2018-07-20T20:42:23.062Z,12.80
2018-07-20T20:43:54.665Z,11.30
2018-07-20T20:45:26.218Z,12.40
2018-07-20T20:46:57.800Z,14.80
2018-07-20T20:48:29.373Z,11.60
2018-07-20T20:50:00.956Z,11.90
2018-07-20T20:51:32.537Z,12.30
2018-07-20T20:53:04.109Z,15.00
2018-07-20T20:54:35.683Z,13.20
2018-07-20T20:56:07.360Z,12.90
2018-07-20T20:57:38.838Z,12.50
2018-07-20T20:59:10.440Z,16.90
2018-07-20T21:00:41.992Z,15.20
2018-07-20T21:02:13.569Z,13.00
2018-07-20T21:03:45.148Z,13.10
2018-07-20T21:05:16.723Z,17.90
2018-07-20T21:06:48.300Z,14.30
2018-07-20T21:08:19.881Z,12.10
2018-07-20T21:09:51.457Z,18.50
2018-07-20T21:11:23.030Z,18.30
2018-07-20T21:12:54.759Z,15.20
2018-07-20T21:14:26.283Z,16.30
2018-07-20T21:15:57.762Z,17.40
2018-07-20T21:17:29.337Z,22.50
2018-07-20T21:19:00.917Z,16.40
2018-07-20T21:20:32.491Z,18.30
2018-07-20T21:22:04.067Z,19.50
2018-07-20T21:23:35.644Z,19.30
2018-07-20T21:25:07.217Z,15.60
2018-07-20T21:26:38.793Z,15.00
2018-07-20T21:28:10.369Z,16.30
2018-07-20T21:29:41.961Z,13.50
2018-07-20T21:31:13.521Z,13.70